sensor_id;sensor_type;location;lat;lon;timestamp;pressure;altitude;pressure_sealevel;temperature;humidity
64336;BME280;50672;53.362;-6.240;2023-03-13T00:01:17;98324.56;;;11.89;88.73
64336;BME280;50672;53.362;-6.240;2023-03-13T00:03:45;98301.94;;;11.88;88.62
64336;BME280;50672;53.362;-6.240;2023-03-13T00:06:12;98300.28;;;11.87;88.61
64336;BME280;50672;53.362;-6.240;2023-03-13T00:08:40;98288.31;;;11.88;88.58
64336;BME280;50672;53.362;-6.240;2023-03-13T00:11:09;98295.41;;;11.89;88.40
64336;BME280;50672;53.362;-6.240;2023-03-13T00:13:36;98268.97;;;11.90;88.64
64336;BME280;50672;53.362;-6.240;2023-03-13T00:16:09;98253.47;;;11.90;88.63
64336;BME280;50672;53.362;-6.240;2023-03-13T00:18:36;98238.75;;;11.91;88.40
64336;BME280;50672;53.362;-6.240;2023-03-13T00:21:08;98222.38;;;11.91;88.27
64336;BME280;50672;53.362;-6.240;2023-03-13T00:23:36;98208.19;;;11.89;88.27
64336;BME280;50672;53.362;-6.240;2023-03-13T00:26:06;98219.91;;;11.90;88.44
64336;BME280;50672;53.362;-6.240;2023-03-13T00:28:35;98211.97;;;11.88;88.46
64336;BME280;50672;53.362;-6.240;2023-03-13T00:31:09;98204.88;;;11.87;88.54
64336;BME280;50672;53.362;-6.240;2023-03-13T00:33:38;98193.16;;;11.87;88.60
64336;BME280;50672;53.362;-6.240;2023-03-13T00:36:10;98193.97;;;11.87;88.84
64336;BME280;50672;53.362;-6.240;2023-03-13T00:38:38;98197.78;;;11.86;88.63
64336;BME280;50672;53.362;-6.240;2023-03-13T00:41:13;98184.63;;;11.83;89.02
64336;BME280;50672;53.362;-6.240;2023-03-13T00:43:41;98183.25;;;11.80;88.55
64336;BME280;50672;53.362;-6.240;2023-03-13T00:46:09;98187.84;;;11.80;88.88
64336;BME280;50672;53.362;-6.240;2023-03-13T00:48:36;98182.66;;;11.78;88.79
64336;BME280;50672;53.362;-6.240;2023-03-13T00:51:04;98154.59;;;11.78;89.00
64336;BME280;50672;53.362;-6.240;2023-03-13T00:53:31;98151.88;;;11.78;88.75
64336;BME280;50672;53.362;-6.240;2023-03-13T00:56:06;98141.69;;;11.73;88.88
64336;BME280;50672;53.362;-6.240;2023-03-13T00:58:35;98140.22;;;11.66;89.24
64336;BME280;50672;53.362;-6.240;2023-03-13T01:04:13;98134.00;;;11.53;89.06
64336;BME280;50672;53.362;-6.240;2023-03-13T01:06:41;98131.78;;;11.50;89.12
64336;BME280;50672;53.362;-6.240;2023-03-13T01:09:15;98120.28;;;11.48;89.07
64336;BME280;50672;53.362;-6.240;2023-03-13T01:11:43;98128.22;;;11.50;88.94
64336;BME280;50672;53.362;-6.240;2023-03-13T01:14:16;98107.78;;;11.47;89.48
64336;BME280;50672;53.362;-6.240;2023-03-13T01:16:42;98112.38;;;11.46;89.36
64336;BME280;50672;53.362;-6.240;2023-03-13T01:19:14;98113.69;;;11.44;89.43
64336;BME280;50672;53.362;-6.240;2023-03-13T01:21:43;98112.88;;;11.43;89.34
64336;BME280;50672;53.362;-6.240;2023-03-13T01:24:11;98121.03;;;11.43;89.55
64336;BME280;50672;53.362;-6.240;2023-03-13T01:26:38;98121.03;;;11.43;89.42
64336;BME280;50672;53.362;-6.240;2023-03-13T01:29:04;98114.19;;;11.41;89.44
64336;BME280;50672;53.362;-6.240;2023-03-13T01:31:33;98118.97;;;11.34;89.83
64336;BME280;50672;53.362;-6.240;2023-03-13T01:34:03;98111.03;;;11.32;89.47
64336;BME280;50672;53.362;-6.240;2023-03-13T01:36:31;98107.97;;;11.28;89.56
64336;BME280;50672;53.362;-6.240;2023-03-13T01:38:59;98108.47;;;11.25;89.66
64336;BME280;50672;53.362;-6.240;2023-03-13T01:41:28;98100.31;;;11.25;89.92
64336;BME280;50672;53.362;-6.240;2023-03-13T01:43:56;98106.09;;;11.29;90.08
64336;BME280;50672;53.362;-6.240;2023-03-13T01:46:24;98111.38;;;11.36;90.02
64336;BME280;50672;53.362;-6.240;2023-03-13T01:51:35;98085.97;;;11.47;90.20
64336;BME280;50672;53.362;-6.240;2023-03-13T01:56:41;98065.25;;;11.46;90.29
64336;BME280;50672;53.362;-6.240;2023-03-13T01:59:13;98069.84;;;11.45;90.03
64336;BME280;50672;53.362;-6.240;2023-03-13T02:01:43;98068.22;;;11.44;90.35
64336;BME280;50672;53.362;-6.240;2023-03-13T02:04:13;98071.84;;;11.50;90.03
64336;BME280;50672;53.362;-6.240;2023-03-13T02:06:43;98067.56;;;11.54;90.03
64336;BME280;50672;53.362;-6.240;2023-03-13T02:09:14;98058.63;;;11.59;89.96
64336;BME280;50672;53.362;-6.240;2023-03-13T02:11:48;98051.63;;;11.63;90.16
64336;BME280;50672;53.362;-6.240;2023-03-13T02:14:19;98050.28;;;11.66;89.97
64336;BME280;50672;53.362;-6.240;2023-03-13T02:16:47;98042.63;;;11.62;89.98
64336;BME280;50672;53.362;-6.240;2023-03-13T02:19:28;98024.38;;;11.63;90.10
64336;BME280;50672;53.362;-6.240;2023-03-13T02:27:57;98036.28;;;11.57;89.82
64336;BME280;50672;53.362;-6.240;2023-03-13T02:30:26;98039.72;;;11.52;89.56
64336;BME280;50672;53.362;-6.240;2023-03-13T02:32:54;98036.94;;;11.47;89.72
64336;BME280;50672;53.362;-6.240;2023-03-13T02:35:22;98027.38;;;11.44;89.59
64336;BME280;50672;53.362;-6.240;2023-03-13T02:37:53;98019.19;;;11.44;89.69
64336;BME280;50672;53.362;-6.240;2023-03-13T02:40:25;98005.81;;;11.43;89.29
64336;BME280;50672;53.362;-6.240;2023-03-13T02:42:54;97993.78;;;11.39;89.50
64336;BME280;50672;53.362;-6.240;2023-03-13T02:45:21;97993.44;;;11.35;89.15
64336;BME280;50672;53.362;-6.240;2023-03-13T02:47:48;97992.03;;;11.33;89.06
64336;BME280;50672;53.362;-6.240;2023-03-13T02:50:16;97987.44;;;11.33;88.69
64336;BME280;50672;53.362;-6.240;2023-03-13T02:52:49;97972.72;;;11.34;88.81
64336;BME280;50672;53.362;-6.240;2023-03-13T02:55:36;98000.19;;;11.33;88.69
64336;BME280;50672;53.362;-6.240;2023-03-13T02:58:06;97947.91;;;11.31;88.30
64336;BME280;50672;53.362;-6.240;2023-03-13T03:00:33;97941.88;;;11.28;88.38
64336;BME280;50672;53.362;-6.240;2023-03-13T03:03:01;97950.28;;;11.27;87.98
64336;BME280;50672;53.362;-6.240;2023-03-13T03:05:28;97946.75;;;11.26;88.17
64336;BME280;50672;53.362;-6.240;2023-03-13T03:07:55;97932.53;;;11.24;88.10
64336;BME280;50672;53.362;-6.240;2023-03-13T03:10:21;97928.19;;;11.23;87.84
64336;BME280;50672;53.362;-6.240;2023-03-13T03:12:48;97925.47;;;11.23;87.72
64336;BME280;50672;53.362;-6.240;2023-03-13T03:15:15;97908.56;;;11.21;87.51
64336;BME280;50672;53.362;-6.240;2023-03-13T03:17:42;97917.31;;;11.23;87.38
64336;BME280;50672;53.362;-6.240;2023-03-13T03:20:09;97909.19;;;11.28;87.34
64336;BME280;50672;53.362;-6.240;2023-03-13T03:22:38;97902.44;;;11.31;87.05
64336;BME280;50672;53.362;-6.240;2023-03-13T03:25:06;97899.44;;;11.33;86.98
64336;BME280;50672;53.362;-6.240;2023-03-13T03:27:35;97890.22;;;11.34;86.74
64336;BME280;50672;53.362;-6.240;2023-03-13T03:30:03;97896.81;;;11.38;86.94
64336;BME280;50672;53.362;-6.240;2023-03-13T03:32:31;97891.19;;;11.44;86.57
64336;BME280;50672;53.362;-6.240;2023-03-13T03:34:58;97882.75;;;11.46;86.37
64336;BME280;50672;53.362;-6.240;2023-03-13T03:37:24;97889.59;;;11.49;86.46
64336;BME280;50672;53.362;-6.240;2023-03-13T03:39:51;97878.44;;;11.50;86.05
64336;BME280;50672;53.362;-6.240;2023-03-13T03:42:18;97872.16;;;11.50;85.99
64336;BME280;50672;53.362;-6.240;2023-03-13T03:44:45;97874.06;;;11.49;85.90
64336;BME280;50672;53.362;-6.240;2023-03-13T03:47:12;97873.19;;;11.43;85.80
64336;BME280;50672;53.362;-6.240;2023-03-13T03:49:39;97875.28;;;11.36;85.47
64336;BME280;50672;53.362;-6.240;2023-03-13T03:52:06;97882.81;;;11.29;85.36
64336;BME280;50672;53.362;-6.240;2023-03-13T03:54:32;97884.63;;;11.23;85.45
64336;BME280;50672;53.362;-6.240;2023-03-13T03:57:00;97870.34;;;11.16;84.74
64336;BME280;50672;53.362;-6.240;2023-03-13T03:59:27;97868.13;;;11.13;84.79
64336;BME280;50672;53.362;-6.240;2023-03-13T04:01:54;97871.09;;;11.11;83.91
64336;BME280;50672;53.362;-6.240;2023-03-13T04:04:21;97870.81;;;11.08;83.72
64336;BME280;50672;53.362;-6.240;2023-03-13T04:06:48;97867.50;;;11.06;83.07
64336;BME280;50672;53.362;-6.240;2023-03-13T04:09:14;97869.31;;;11.00;82.82
64336;BME280;50672;53.362;-6.240;2023-03-13T04:11:41;97878.97;;;10.74;83.46
64336;BME280;50672;53.362;-6.240;2023-03-13T04:14:08;97867.94;;;10.47;84.22
64336;BME280;50672;53.362;-6.240;2023-03-13T04:16:35;97857.22;;;10.11;89.68
64336;BME280;50672;53.362;-6.240;2023-03-13T04:19:02;97848.59;;;9.85;100.00
64336;BME280;50672;53.362;-6.240;2023-03-13T04:21:29;97836.97;;;9.73;100.00
64336;BME280;50672;53.362;-6.240;2023-03-13T04:23:55;97850.91;;;9.65;100.00
64336;BME280;50672;53.362;-6.240;2023-03-13T04:26:22;97845.38;;;9.60;100.00
64336;BME280;50672;53.362;-6.240;2023-03-13T04:28:49;97829.56;;;9.56;100.00
64336;BME280;50672;53.362;-6.240;2023-03-13T04:31:15;97805.63;;;9.53;100.00
64336;BME280;50672;53.362;-6.240;2023-03-13T04:33:42;97793.34;;;9.51;100.00
64336;BME280;50672;53.362;-6.240;2023-03-13T04:36:29;97820.50;;;9.51;100.00
64336;BME280;50672;53.362;-6.240;2023-03-13T04:39:56;97835.50;;;9.53;100.00
64336;BME280;50672;53.362;-6.240;2023-03-13T04:43:22;97833.22;;;9.62;100.00
64336;BME280;50672;53.362;-6.240;2023-03-13T04:46:49;97830.94;;;9.71;100.00
64336;BME280;50672;53.362;-6.240;2023-03-13T04:49:56;97819.09;;;9.77;100.00
64336;BME280;50672;53.362;-6.240;2023-03-13T04:52:23;97840.34;;;9.80;100.00
64336;BME280;50672;53.362;-6.240;2023-03-13T04:58:49;97839.03;;;9.83;100.00
64336;BME280;50672;53.362;-6.240;2023-03-13T05:02:15;97839.03;;;9.83;100.00
64336;BME280;50672;53.362;-6.240;2023-03-13T05:05:42;97818.13;;;9.83;100.00
64336;BME280;50672;53.362;-6.240;2023-03-13T05:09:08;97803.47;;;9.84;100.00
64336;BME280;50672;53.362;-6.240;2023-03-13T05:12:35;97795.91;;;9.86;100.00
64336;BME280;50672;53.362;-6.240;2023-03-13T05:16:29;97787.75;;;9.86;100.00
64336;BME280;50672;53.362;-6.240;2023-03-13T05:19:55;97786.69;;;9.87;100.00
64336;BME280;50672;53.362;-6.240;2023-03-13T05:27:04;97760.69;;;9.91;100.00
64336;BME280;50672;53.362;-6.240;2023-03-13T05:30:30;97764.00;;;9.94;100.00
64336;BME280;50672;53.362;-6.240;2023-03-13T05:33:57;97768.09;;;9.96;100.00
64336;BME280;50672;53.362;-6.240;2023-03-13T05:37:24;97773.88;;;10.00;100.00
64336;BME280;50672;53.362;-6.240;2023-03-13T05:40:50;97776.09;;;10.03;100.00
64336;BME280;50672;53.362;-6.240;2023-03-13T05:44:29;97765.81;;;10.05;100.00
64336;BME280;50672;53.362;-6.240;2023-03-13T06:53:25;97738.53;;;9.83;97.54
64336;BME280;50672;53.362;-6.240;2023-03-13T06:55:52;97736.31;;;9.80;97.22
64336;BME280;50672;53.362;-6.240;2023-03-13T06:58:19;97740.34;;;9.77;97.11
64336;BME280;50672;53.362;-6.240;2023-03-13T07:01:19;97736.78;;;9.77;96.76
64336;BME280;50672;53.362;-6.240;2023-03-13T07:03:46;97740.09;;;9.79;96.59
64336;BME280;50672;53.362;-6.240;2023-03-13T07:06:15;97737.13;;;9.80;96.55
64336;BME280;50672;53.362;-6.240;2023-03-13T07:08:42;97736.06;;;9.81;96.03
64336;BME280;50672;53.362;-6.240;2023-03-13T07:11:11;97741.25;;;9.83;95.75
64336;BME280;50672;53.362;-6.240;2023-03-13T07:13:38;97743.72;;;9.84;95.39
64336;BME280;50672;53.362;-6.240;2023-03-13T07:16:08;97747.34;;;9.90;95.49
64336;BME280;50672;53.362;-6.240;2023-03-13T07:18:55;97752.03;;;9.95;94.84
64336;BME280;50672;53.362;-6.240;2023-03-13T07:22:35;97749.41;;;10.00;95.01
64336;BME280;50672;53.362;-6.240;2023-03-13T07:25:03;97758.63;;;9.99;94.63
64336;BME280;50672;53.362;-6.240;2023-03-13T07:27:30;97750.47;;;9.99;94.16
64336;BME280;50672;53.362;-6.240;2023-03-13T07:29:57;97757.56;;;10.00;94.29
64336;BME280;50672;53.362;-6.240;2023-03-13T07:32:24;97758.13;;;10.02;93.70
64336;BME280;50672;53.362;-6.240;2023-03-13T07:34:51;97762.25;;;10.04;93.59
64336;BME280;50672;53.362;-6.240;2023-03-13T07:37:18;97756.56;;;10.06;93.45
64336;BME280;50672;53.362;-6.240;2023-03-13T07:39:45;97761.03;;;10.12;93.50
64336;BME280;50672;53.362;-6.240;2023-03-13T07:42:12;97762.50;;;10.20;92.93
64336;BME280;50672;53.362;-6.240;2023-03-13T07:44:38;97764.00;;;10.27;93.11
64336;BME280;50672;53.362;-6.240;2023-03-13T07:47:06;97763.00;;;10.34;93.01
64336;BME280;50672;53.362;-6.240;2023-03-13T07:49:33;97760.72;;;10.42;92.66
64336;BME280;50672;53.362;-6.240;2023-03-13T07:52:04;97772.25;;;10.50;92.27
64336;BME280;50672;53.362;-6.240;2023-03-13T07:54:31;97766.66;;;10.56;92.33
64336;BME280;50672;53.362;-6.240;2023-03-13T07:56:58;97771.34;;;10.61;91.74
64336;BME280;50672;53.362;-6.240;2023-03-13T07:59:24;97766.22;;;10.65;91.45
64336;BME280;50672;53.362;-6.240;2023-03-13T08:01:51;97758.06;;;10.65;91.64
64336;BME280;50672;53.362;-6.240;2023-03-13T08:04:18;97765.72;;;10.68;90.99
64336;BME280;50672;53.362;-6.240;2023-03-13T08:06:45;97780.47;;;10.72;90.92
64336;BME280;50672;53.362;-6.240;2023-03-13T08:09:12;97774.59;;;10.80;90.78
64336;BME280;50672;53.362;-6.240;2023-03-13T08:11:39;97768.72;;;10.88;90.15
64336;BME280;50672;53.362;-6.240;2023-03-13T08:14:06;97768.28;;;10.97;89.93
64336;BME280;50672;53.362;-6.240;2023-03-13T08:16:34;97770.44;;;10.94;89.89
64336;BME280;50672;53.362;-6.240;2023-03-13T08:19:03;97774.75;;;10.90;89.28
64336;BME280;50672;53.362;-6.240;2023-03-13T08:21:35;97778.47;;;10.84;89.15
64336;BME280;50672;53.362;-6.240;2023-03-13T08:24:07;97772.63;;;10.75;89.12
64336;BME280;50672;53.362;-6.240;2023-03-13T08:26:36;97775.50;;;10.69;89.05
64336;BME280;50672;53.362;-6.240;2023-03-13T08:29:06;97774.69;;;10.68;88.67
64336;BME280;50672;53.362;-6.240;2023-03-13T08:31:35;97778.22;;;10.69;88.89
64336;BME280;50672;53.362;-6.240;2023-03-13T08:34:02;97785.91;;;10.72;88.51
64336;BME280;50672;53.362;-6.240;2023-03-13T08:36:35;97777.00;;;10.76;88.49
64336;BME280;50672;53.362;-6.240;2023-03-13T08:39:06;97783.25;;;10.77;88.53
64336;BME280;50672;53.362;-6.240;2023-03-13T08:41:35;97779.28;;;10.85;88.42
64336;BME280;50672;53.362;-6.240;2023-03-13T08:44:04;97780.75;;;10.92;88.19
64336;BME280;50672;53.362;-6.240;2023-03-13T08:46:33;97780.31;;;11.01;87.59
64336;BME280;50672;53.362;-6.240;2023-03-13T08:49:05;97789.69;;;11.10;87.60
64336;BME280;50672;53.362;-6.240;2023-03-13T08:51:32;97780.50;;;11.16;87.64
64336;BME280;50672;53.362;-6.240;2023-03-13T08:54:00;97788.50;;;11.23;87.28
64336;BME280;50672;53.362;-6.240;2023-03-13T08:56:29;97785.34;;;11.31;87.05
64336;BME280;50672;53.362;-6.240;2023-03-13T08:58:58;97784.81;;;11.34;86.73
64336;BME280;50672;53.362;-6.240;2023-03-13T09:01:29;97790.59;;;11.38;86.37
64336;BME280;50672;53.362;-6.240;2023-03-13T09:03:58;97789.53;;;11.39;86.07
64336;BME280;50672;53.362;-6.240;2023-03-13T09:06:29;97792.09;;;11.51;86.03
64336;BME280;50672;53.362;-6.240;2023-03-13T09:08:56;97782.94;;;11.57;85.64
64336;BME280;50672;53.362;-6.240;2023-03-13T09:11:24;97799.03;;;11.63;85.47
64336;BME280;50672;53.362;-6.240;2023-03-13T09:13:51;97790.13;;;11.68;84.83
64336;BME280;50672;53.362;-6.240;2023-03-13T09:16:21;97798.03;;;11.70;84.66
64336;BME280;50672;53.362;-6.240;2023-03-13T09:18:49;97800.78;;;11.70;84.45
64336;BME280;50672;53.362;-6.240;2023-03-13T09:21:30;97792.84;;;11.68;84.40
64336;BME280;50672;53.362;-6.240;2023-03-13T09:23:58;97800.69;;;11.65;84.04
64336;BME280;50672;53.362;-6.240;2023-03-13T09:26:26;97794.19;;;11.66;84.02
64336;BME280;50672;53.362;-6.240;2023-03-13T09:28:53;97796.44;;;11.74;83.98
64336;BME280;50672;53.362;-6.240;2023-03-13T09:31:23;97804.97;;;11.83;83.59
64336;BME280;50672;53.362;-6.240;2023-03-13T09:33:50;97802.63;;;11.91;83.64
64336;BME280;50672;53.362;-6.240;2023-03-13T09:36:18;97811.81;;;12.07;83.24
64336;BME280;50672;53.362;-6.240;2023-03-13T09:38:49;97809.69;;;12.14;83.26
64336;BME280;50672;53.362;-6.240;2023-03-13T09:43:48;97813.81;;;12.17;82.81
64336;BME280;50672;53.362;-6.240;2023-03-13T09:46:25;97817.63;;;12.16;82.63
64336;BME280;50672;53.362;-6.240;2023-03-13T09:53:01;97806.81;;;12.64;81.39
64336;BME280;50672;53.362;-6.240;2023-03-13T09:56:16;97814.25;;;12.74;81.31
64336;BME280;50672;53.362;-6.240;2023-03-13T09:59:33;97816.28;;;12.89;80.56
64336;BME280;50672;53.362;-6.240;2023-03-13T10:01:41;97815.28;;;13.05;80.55
64336;BME280;50672;53.362;-6.240;2023-03-13T10:06:46;97824.34;;;13.11;79.24
64336;BME280;50672;53.362;-6.240;2023-03-13T10:09:30;97829.16;;;12.98;79.26
64336;BME280;50672;53.362;-6.240;2023-03-13T10:17:38;97826.28;;;12.73;78.75
64336;BME280;50672;53.362;-6.240;2023-03-13T10:20:28;97823.56;;;12.73;78.41
64336;BME280;50672;53.362;-6.240;2023-03-13T10:23:21;97815.06;;;12.69;78.21
64336;BME280;50672;53.362;-6.240;2023-03-13T10:25:51;97826.28;;;12.78;78.46
64336;BME280;50672;53.362;-6.240;2023-03-13T10:28:18;97832.84;;;12.77;78.05
64336;BME280;50672;53.362;-6.240;2023-03-13T10:30:51;97818.34;;;12.71;78.28
64336;BME280;50672;53.362;-6.240;2023-03-13T10:33:26;97818.63;;;12.75;77.97
64336;BME280;50672;53.362;-6.240;2023-03-13T10:36:10;97831.22;;;12.76;78.17
64336;BME280;50672;53.362;-6.240;2023-03-13T10:41:20;97831.03;;;12.93;77.84
64336;BME280;50672;53.362;-6.240;2023-03-13T10:43:53;97826.44;;;12.98;77.92
64336;BME280;50672;53.362;-6.240;2023-03-13T10:46:29;97822.31;;;12.96;77.83
64336;BME280;50672;53.362;-6.240;2023-03-13T10:49:00;97835.47;;;13.04;77.51
64336;BME280;50672;53.362;-6.240;2023-03-13T10:51:38;97831.38;;;13.02;77.82
64336;BME280;50672;53.362;-6.240;2023-03-13T10:56:45;97841.69;;;12.94;77.46
64336;BME280;50672;53.362;-6.240;2023-03-13T10:59:22;97841.44;;;12.96;77.34
64336;BME280;50672;53.362;-6.240;2023-03-13T11:01:50;97847.75;;;13.02;76.84
64336;BME280;50672;53.362;-6.240;2023-03-13T11:07:46;97854.63;;;13.57;76.74
64336;BME280;50672;53.362;-6.240;2023-03-13T11:12:43;97845.44;;;13.79;76.00
64336;BME280;50672;53.362;-6.240;2023-03-13T11:15:28;97848.63;;;13.60;75.59
64336;BME280;50672;53.362;-6.240;2023-03-13T11:18:10;97853.50;;;13.43;75.49
64336;BME280;50672;53.362;-6.240;2023-03-13T11:20:43;97854.50;;;13.31;75.23
64336;BME280;50672;53.362;-6.240;2023-03-13T11:23:29;97854.41;;;13.16;75.48
64336;BME280;50672;53.362;-6.240;2023-03-13T11:26:37;97858.16;;;13.05;75.71
64336;BME280;50672;53.362;-6.240;2023-03-13T11:31:42;97861.97;;;13.04;75.67
64336;BME280;50672;53.362;-6.240;2023-03-13T11:34:35;97858.44;;;13.51;76.04
64336;BME280;50672;53.362;-6.240;2023-03-13T11:37:13;97860.22;;;13.88;75.55
64336;BME280;50672;53.362;-6.240;2023-03-13T11:39:54;97860.31;;;14.14;75.65
64336;BME280;50672;53.362;-6.240;2023-03-13T11:43:07;97863.06;;;14.40;74.99
64336;BME280;50672;53.362;-6.240;2023-03-13T11:46:17;97860.94;;;14.78;74.41
64336;BME280;50672;53.362;-6.240;2023-03-13T11:48:59;97863.94;;;14.66;74.13
64336;BME280;50672;53.362;-6.240;2023-03-13T12:00:30;97860.22;;;15.63;71.99
64336;BME280;50672;53.362;-6.240;2023-03-13T12:05:52;97860.31;;;16.08;70.97
64336;BME280;50672;53.362;-6.240;2023-03-13T12:08:39;97846.69;;;15.93;70.05
64336;BME280;50672;53.362;-6.240;2023-03-13T12:11:16;97844.44;;;16.45;69.50
64336;BME280;50672;53.362;-6.240;2023-03-13T12:14:08;97842.06;;;16.67;68.85
64336;BME280;50672;53.362;-6.240;2023-03-13T12:16:54;97849.44;;;17.06;67.95
64336;BME280;50672;53.362;-6.240;2023-03-13T12:19:54;97848.47;;;16.87;67.07
64336;BME280;50672;53.362;-6.240;2023-03-13T12:22:29;97844.47;;;17.08;66.36
64336;BME280;50672;53.362;-6.240;2023-03-13T12:25:09;97852.31;;;17.20;65.95
64336;BME280;50672;53.362;-6.240;2023-03-13T12:27:43;97838.88;;;16.89;65.40
64336;BME280;50672;53.362;-6.240;2023-03-13T12:30:23;97858.59;;;16.62;64.75
64336;BME280;50672;53.362;-6.240;2023-03-13T12:35:45;97843.22;;;17.49;64.05
64336;BME280;50672;53.362;-6.240;2023-03-13T12:43:21;97843.25;;;17.92;62.41
64336;BME280;50672;53.362;-6.240;2023-03-13T12:51:02;97850.50;;;18.98;60.25
64336;BME280;50672;53.362;-6.240;2023-03-13T12:56:44;97853.84;;;18.04;59.21
64336;BME280;50672;53.362;-6.240;2023-03-13T12:59:18;97851.09;;;17.80;59.12
64336;BME280;50672;53.362;-6.240;2023-03-13T13:01:51;97842.47;;;18.30;59.07
64336;BME280;50672;53.362;-6.240;2023-03-13T13:04:23;97839.03;;;18.38;58.57
64336;BME280;50672;53.362;-6.240;2023-03-13T13:06:57;97843.72;;;19.23;58.32
64336;BME280;50672;53.362;-6.240;2023-03-13T13:09:35;97847.50;;;19.69;57.65
64336;BME280;50672;53.362;-6.240;2023-03-13T13:19:47;97841.03;;;23.05;53.30
64336;BME280;50672;53.362;-6.240;2023-03-13T13:32:51;97842.84;;;18.94;53.11
64336;BME280;50672;53.362;-6.240;2023-03-13T13:35:27;97840.47;;;19.76;53.37
64336;BME280;50672;53.362;-6.240;2023-03-13T13:43:47;97893.75;;;16.60;55.80
64336;BME280;50672;53.362;-6.240;2023-03-13T13:46:34;97909.09;;;15.35;58.29
64336;BME280;50672;53.362;-6.240;2023-03-13T13:49:07;97901.88;;;14.16;60.13
64336;BME280;50672;53.362;-6.240;2023-03-13T13:51:40;97908.22;;;13.58;62.23
64336;BME280;50672;53.362;-6.240;2023-03-13T13:57:07;97907.00;;;13.01;66.03
64336;BME280;50672;53.362;-6.240;2023-03-13T14:00:00;97903.09;;;12.92;67.37
64336;BME280;50672;53.362;-6.240;2023-03-13T14:02:36;97909.31;;;12.82;69.09
64336;BME280;50672;53.362;-6.240;2023-03-13T14:05:24;97913.34;;;12.74;70.32
64336;BME280;50672;53.362;-6.240;2023-03-13T14:08:03;97908.97;;;12.73;71.12
64336;BME280;50672;53.362;-6.240;2023-03-13T14:10:43;97911.91;;;12.67;71.97
64336;BME280;50672;53.362;-6.240;2023-03-13T14:13:17;97922.53;;;12.63;72.03
64336;BME280;50672;53.362;-6.240;2023-03-13T14:15:53;97921.69;;;12.62;72.62
64336;BME280;50672;53.362;-6.240;2023-03-13T14:18:31;97923.88;;;12.60;73.35
64336;BME280;50672;53.362;-6.240;2023-03-13T14:21:02;97930.41;;;12.59;73.58
64336;BME280;50672;53.362;-6.240;2023-03-13T14:23:44;97933.66;;;12.56;74.41
64336;BME280;50672;53.362;-6.240;2023-03-13T14:26:37;97956.00;;;12.53;74.98
64336;BME280;50672;53.362;-6.240;2023-03-13T14:29:15;97957.22;;;12.40;75.23
64336;BME280;50672;53.362;-6.240;2023-03-13T14:31:50;97970.50;;;12.31;75.37
64336;BME280;50672;53.362;-6.240;2023-03-13T14:34:18;97970.50;;;12.31;75.21
64336;BME280;50672;53.362;-6.240;2023-03-13T14:36:46;97973.47;;;12.30;75.68
64336;BME280;50672;53.362;-6.240;2023-03-13T14:42:09;97979.72;;;12.25;75.41
64336;BME280;50672;53.362;-6.240;2023-03-13T14:44:36;97979.31;;;12.17;75.29
64336;BME280;50672;53.362;-6.240;2023-03-13T14:47:28;97987.13;;;12.08;75.43
64336;BME280;50672;53.362;-6.240;2023-03-13T14:49:59;98004.31;;;12.08;75.65
64336;BME280;50672;53.362;-6.240;2023-03-13T14:52:29;98024.16;;;12.04;75.73
64336;BME280;50672;53.362;-6.240;2023-03-13T14:58:45;98054.06;;;11.99;75.77
64336;BME280;50672;53.362;-6.240;2023-03-13T15:02:23;98060.00;;;11.95;75.60
64336;BME280;50672;53.362;-6.240;2023-03-13T15:08:40;98076.50;;;11.89;75.56
64336;BME280;50672;53.362;-6.240;2023-03-13T15:11:18;98076.19;;;11.85;75.63
64336;BME280;50672;53.362;-6.240;2023-03-13T15:13:45;98090.72;;;11.91;75.54
64336;BME280;50672;53.362;-6.240;2023-03-13T15:16:15;98104.28;;;12.03;75.50
64336;BME280;50672;53.362;-6.240;2023-03-13T15:18:42;98105.94;;;12.04;75.42
64336;BME280;50672;53.362;-6.240;2023-03-13T15:23:40;98126.91;;;11.86;74.83
64336;BME280;50672;53.362;-6.240;2023-03-13T15:26:07;98130.13;;;11.83;74.98
64336;BME280;50672;53.362;-6.240;2023-03-13T15:28:34;98139.88;;;11.79;74.65
64336;BME280;50672;53.362;-6.240;2023-03-13T15:31:01;98141.13;;;11.71;74.72
64336;BME280;50672;53.362;-6.240;2023-03-13T15:33:28;98150.53;;;11.63;74.74
64336;BME280;50672;53.362;-6.240;2023-03-13T15:35:55;98154.25;;;11.57;74.67
64336;BME280;50672;53.362;-6.240;2023-03-13T15:38:24;98161.25;;;11.53;74.14
64336;BME280;50672;53.362;-6.240;2023-03-13T15:40:52;98174.78;;;11.48;74.46
64336;BME280;50672;53.362;-6.240;2023-03-13T15:43:20;98177.69;;;11.41;74.69
64336;BME280;50672;53.362;-6.240;2023-03-13T15:45:48;98174.59;;;11.38;74.66
64336;BME280;50672;53.362;-6.240;2023-03-13T15:48:26;98178.31;;;11.32;74.29
64336;BME280;50672;53.362;-6.240;2023-03-13T15:50:59;98192.06;;;11.25;74.53
64336;BME280;50672;53.362;-6.240;2023-03-13T15:55:57;98208.53;;;11.18;74.43
64336;BME280;50672;53.362;-6.240;2023-03-13T15:58:25;98199.56;;;11.18;74.70
64336;BME280;50672;53.362;-6.240;2023-03-13T16:00:55;98206.31;;;11.15;74.33
64336;BME280;50672;53.362;-6.240;2023-03-13T16:03:27;98205.81;;;11.18;74.53
64336;BME280;50672;53.362;-6.240;2023-03-13T16:05:55;98209.97;;;11.21;74.15
64336;BME280;50672;53.362;-6.240;2023-03-13T16:08:26;98219.06;;;11.26;74.33
64336;BME280;50672;53.362;-6.240;2023-03-13T16:11:02;98225.91;;;11.29;74.19
64336;BME280;50672;53.362;-6.240;2023-03-13T16:13:29;98230.53;;;11.28;73.98
64336;BME280;50672;53.362;-6.240;2023-03-13T16:15:56;98233.97;;;11.24;73.69
64336;BME280;50672;53.362;-6.240;2023-03-13T16:18:24;98235.78;;;11.18;73.53
64336;BME280;50672;53.362;-6.240;2023-03-13T16:20:52;98245.50;;;11.14;73.44
64336;BME280;50672;53.362;-6.240;2023-03-13T16:23:18;98245.88;;;11.06;73.28
64336;BME280;50672;53.362;-6.240;2023-03-13T16:25:46;98249.31;;;11.01;72.92
64336;BME280;50672;53.362;-6.240;2023-03-13T16:28:14;98260.69;;;10.98;72.64
64336;BME280;50672;53.362;-6.240;2023-03-13T16:30:41;98262.00;;;10.96;72.79
64336;BME280;50672;53.362;-6.240;2023-03-13T16:33:13;98266.72;;;11.00;72.66
64336;BME280;50672;53.362;-6.240;2023-03-13T16:35:40;98272.03;;;11.07;72.56
64336;BME280;50672;53.362;-6.240;2023-03-13T16:38:09;98275.19;;;11.16;71.95